createdAt,value
2022-09-22T00:05:31.334Z,100.00
2022-09-22T00:15:53.641Z,100.00
2022-09-22T00:26:21.741Z,100.00
2022-09-22T00:36:43.781Z,100.00
2022-09-22T00:47:20.531Z,100.00
2022-09-22T00:57:44.728Z,100.00
2022-09-22T01:08:07.633Z,100.00
2022-09-22T01:18:50.719Z,100.00
2022-09-22T01:29:50.518Z,100.00
2022-09-22T01:40:19.910Z,100.00
2022-09-22T01:51:04.469Z,100.00
2022-09-22T02:01:33.331Z,100.00
2022-09-22T02:11:55.079Z,100.00
2022-09-22T02:22:16.547Z,100.00
2022-09-22T02:32:43.469Z,100.00
2022-09-22T02:43:21.276Z,100.00
2022-09-22T02:53:42.754Z,100.00
2022-09-22T03:04:05.388Z,100.00
2022-09-22T03:14:27.114Z,100.00
2022-09-22T03:24:48.563Z,100.00
2022-09-22T03:35:10.222Z,100.00
2022-09-22T03:45:31.655Z,100.00
2022-09-22T03:55:53.169Z,100.00
2022-09-22T04:06:15.002Z,100.00
2022-09-22T04:16:36.607Z,100.00
2022-09-22T04:37:39.557Z,100.00
2022-09-22T04:48:01.344Z,100.00
2022-09-22T04:58:23.066Z,100.00
2022-09-22T05:08:44.589Z,100.00
2022-09-22T05:19:06.059Z,100.00
2022-09-22T05:29:28.205Z,100.00
2022-09-22T05:39:49.761Z,100.00
2022-09-22T05:50:14.285Z,100.00
2022-09-22T06:00:36.633Z,100.00
2022-09-22T06:10:58.513Z,100.00
2022-09-22T06:21:20.835Z,100.00
2022-09-22T06:31:42.343Z,100.00
2022-09-22T06:42:07.232Z,100.00
2022-09-22T06:52:28.986Z,100.00
2022-09-22T07:02:50.440Z,100.00
2022-09-22T07:13:11.923Z,100.00
2022-09-22T07:23:36.559Z,100.00
2022-09-22T07:34:01.402Z,100.00
2022-09-22T07:44:44.444Z,100.00
2022-09-22T07:55:07.077Z,100.00
2022-09-22T08:05:29.748Z,100.00
2022-09-22T08:15:55.213Z,98.54
2022-09-22T08:26:16.717Z,97.52
2022-09-22T08:36:38.169Z,95.63
2022-09-22T08:47:01.536Z,91.04
2022-09-22T08:58:00.712Z,88.69
2022-09-22T09:08:37.465Z,86.45
2022-09-22T09:19:26.853Z,85.83
2022-09-22T09:29:57.301Z,82.11
2022-09-22T09:40:19.927Z,79.04
2022-09-22T09:50:41.334Z,76.15
2022-09-22T10:01:05.384Z,78.51
2022-09-22T10:11:31.864Z,76.47
2022-09-22T10:21:54.006Z,75.17
2022-09-22T10:32:16.143Z,72.25
2022-09-22T10:42:37.542Z,67.50
2022-09-22T10:53:08.836Z,66.59
2022-09-22T11:03:30.267Z,64.82
2022-09-22T11:13:59.886Z,67.06
2022-09-22T11:24:21.274Z,71.34
2022-09-22T11:34:43.071Z,64.82
2022-09-22T11:45:14.054Z,65.51
2022-09-22T11:55:46.045Z,70.06
2022-09-22T12:06:10.537Z,64.37
2022-09-22T12:16:39.243Z,66.29
2022-09-22T12:27:10.293Z,59.43
2022-09-22T12:37:33.261Z,62.47
2022-09-22T12:47:56.897Z,69.04
2022-09-22T12:58:21.473Z,60.21
2022-09-22T13:08:42.821Z,61.42
2022-09-22T13:19:08.130Z,62.55
2022-09-22T13:29:29.651Z,56.74
2022-09-22T13:39:52.718Z,59.94
2022-09-22T13:50:22.401Z,64.40
2022-09-22T14:01:12.235Z,61.46
2022-09-22T14:11:32.450Z,59.61
2022-09-22T14:21:59.299Z,66.14
2022-09-22T14:32:30.328Z,65.23
2022-09-22T14:42:57.727Z,60.14
2022-09-22T14:53:22.919Z,53.96
2022-09-22T15:03:53.059Z,53.02
2022-09-22T15:14:33.897Z,55.28
2022-09-22T15:24:57.109Z,63.00
2022-09-22T15:35:18.859Z,56.94
2022-09-22T15:45:47.650Z,61.91
2022-09-22T15:56:15.213Z,55.10
2022-09-22T16:06:38.898Z,59.53
2022-09-22T16:17:00.391Z,60.08
2022-09-22T16:27:21.835Z,61.70
2022-09-22T16:37:43.274Z,65.89
2022-09-22T16:48:05.543Z,66.78
2022-09-22T16:58:27.006Z,68.89
2022-09-22T17:08:48.585Z,70.05
2022-09-22T17:19:17.165Z,71.56
2022-09-22T17:29:38.674Z,72.60
2022-09-22T17:40:00.155Z,76.38
2022-09-22T17:50:44.704Z,78.39
2022-09-22T18:01:06.184Z,81.82
2022-09-22T18:11:27.646Z,82.29
2022-09-22T18:21:49.013Z,84.18
2022-09-22T18:32:10.475Z,82.80
2022-09-22T18:42:32.415Z,84.22
2022-09-22T18:52:56.694Z,86.15
2022-09-22T19:03:18.054Z,86.68
2022-09-22T19:13:39.815Z,87.47
2022-09-22T19:24:05.262Z,86.73
2022-09-22T19:34:26.928Z,86.89
2022-09-22T19:44:48.303Z,88.93
2022-09-22T19:55:11.521Z,90.59
2022-09-22T20:05:35.045Z,89.69
2022-09-22T20:15:56.893Z,90.53
2022-09-22T20:26:19.953Z,90.61
2022-09-22T20:36:43.073Z,90.73
2022-09-22T20:47:05.809Z,91.47
2022-09-22T20:57:31.039Z,92.39
2022-09-22T21:08:12.421Z,92.22
2022-09-22T21:18:34.684Z,91.54
2022-09-22T21:28:56.294Z,91.60
2022-09-22T21:39:18.019Z,91.03
2022-09-22T21:49:39.532Z,92.16
2022-09-22T22:00:00.958Z,92.27
2022-09-22T22:10:24.170Z,92.74
2022-09-22T22:20:45.780Z,95.53
2022-09-22T22:31:13.413Z,96.13
2022-09-22T22:41:35.069Z,95.04
2022-09-22T22:51:56.533Z,94.54
2022-09-22T23:02:17.970Z,96.01
2022-09-22T23:12:40.312Z,95.09
2022-09-22T23:23:03.569Z,96.64
2022-09-22T23:33:27.774Z,96.55
2022-09-22T23:43:49.801Z,96.59
2022-09-22T23:54:14.051Z,97.98
